Time;durP1;ratioP1;P1;durP2;ratioP2;P2;SDS_P1;SDS_P2;PMS_P1;PMS_P2;Temp;Humidity;BMP_temperature;BMP_pressure;BME280_temperature;BME280_humidity;BME280_pressure;Samples;Min_cycle;Max_cycle;Signal;HPM_P1;HPM_P2
2022/07/16 00:02:40;;;;;;;5.82;4.35;;;;;;;;;;5022312;28;20625;-76
2022/07/16 00:05:07;;;;;;;10.52;5.38;;;;;;;;;;5028393;28;20033;-77
2022/07/16 00:07:33;;;;;;;6.20;4.78;;;;;;;;;;5025250;28;20029;-75
2022/07/16 00:09:59;;;;;;;7.35;4.68;;;;;;;;;;5024205;28;20072;-75
2022/07/16 00:12:26;;;;;;;6.78;4.78;;;;;;;;;;5029015;28;20029;-76
2022/07/16 00:14:52;;;;;;;6.93;4.60;;;;;;;;;;5030417;28;20018;-76
2022/07/16 00:17:19;;;;;;;7.60;4.90;;;;;;;;;;5027055;28;20028;-76
2022/07/16 00:19:45;;;;;;;8.77;4.90;;;;;;;;;;5026045;28;20395;-76
2022/07/16 00:22:11;;;;;;;6.55;4.70;;;;;;;;;;5023414;28;20091;-75
2022/07/16 00:24:37;;;;;;;5.00;4.50;;;;;;;;;;5029737;28;20030;-76
2022/07/16 00:27:03;;;;;;;7.30;4.95;;;;;;;;;;5029510;28;20030;-74
2022/07/16 00:29:30;;;;;;;6.80;4.30;;;;;;;;;;5028859;28;20096;-75
2022/07/16 00:31:56;;;;;;;7.07;5.38;;;;;;;;;;5028623;28;20018;-75
2022/07/16 00:34:22;;;;;;;5.65;4.53;;;;;;;;;;5028846;28;20028;-76
2022/07/16 00:36:49;;;;;;;7.95;4.75;;;;;;;;;;5029636;28;20136;-75
2022/07/16 00:39:16;;;;;;;6.03;3.83;;;;;;;;;;5028523;28;20018;-75
2022/07/16 00:41:43;;;;;;;5.72;4.20;;;;;;;;;;5025156;28;20032;-76
2022/07/16 00:44:10;;;;;;;4.55;3.63;;;;;;;;;;5028306;28;20053;-75
2022/07/16 00:46:37;;;;;;;6.65;4.25;;;;;;;;;;5027321;28;20865;-75
2022/07/16 00:49:04;;;;;;;5.82;4.20;;;;;;;;;;5025515;28;20124;-75
2022/07/16 00:51:30;;;;;;;5.75;4.28;;;;;;;;;;5028428;28;20131;-75
2022/07/16 00:53:56;;;;;;;4.90;3.95;;;;;;;;;;5031533;28;20097;-75
2022/07/16 00:56:23;;;;;;;5.82;4.15;;;;;;;;;;5028590;28;20022;-76
2022/07/16 00:58:49;;;;;;;5.40;4.30;;;;;;;;;;5026272;28;20479;-75
2022/07/16 01:01:16;;;;;;;8.52;4.75;;;;;;;;;;5026376;28;20025;-75
2022/07/16 01:03:43;;;;;;;6.45;4.22;;;;;;;;;;5029286;28;20531;-75
2022/07/16 01:06:09;;;;;;;6.72;4.60;;;;;;;;;;5029569;28;20033;-75
2022/07/16 01:08:37;;;;;;;7.13;4.43;;;;;;;;;;5033071;28;20022;-75
2022/07/16 01:11:04;;;;;;;5.75;4.53;;;;;;;;;;5029349;28;20028;-74
2022/07/16 01:13:30;;;;;;;5.45;4.00;;;;;;;;;;5023921;28;20034;-74
2022/07/16 01:15:57;;;;;;;5.00;4.07;;;;;;;;;;5027376;28;20058;-75
2022/07/16 01:18:23;;;;;;;5.63;4.30;;;;;;;;;;5027528;28;20556;-76
2022/07/16 01:20:49;;;;;;;6.30;4.50;;;;;;;;;;5026657;28;20025;-75
2022/07/16 01:23:19;;;;;;;7.20;5.07;;;;;;;;;;5028688;28;20104;-75
2022/07/16 01:25:46;;;;;;;6.40;4.90;;;;;;;;;;5028629;28;20037;-76
2022/07/16 01:28:12;;;;;;;7.97;4.80;;;;;;;;;;5028937;28;20499;-75
2022/07/16 01:30:38;;;;;;;6.03;4.50;;;;;;;;;;5023323;28;20384;-75
2022/07/16 01:33:22;;;;;;;9.05;4.72;;;;;;;;;;5028640;28;20056;-75
2022/07/16 01:35:49;;;;;;;6.45;4.80;;;;;;;;;;5027866;28;20475;-74
2022/07/16 01:38:16;;;;;;;10.38;4.85;;;;;;;;;;5028864;28;20030;-75
2022/07/16 01:40:42;;;;;;;6.97;4.82;;;;;;;;;;5025061;28;20021;-76
2022/07/16 01:43:15;;;;;;;6.93;4.72;;;;;;;;;;5027778;28;20048;-75
2022/07/16 01:45:41;;;;;;;7.88;4.93;;;;;;;;;;5025272;28;20029;-76
2022/07/16 01:48:07;;;;;;;7.80;4.55;;;;;;;;;;5024306;28;20037;-74
2022/07/16 01:50:33;;;;;;;6.82;4.50;;;;;;;;;;5023814;28;20021;-74
2022/07/16 01:53:00;;;;;;;7.18;4.72;;;;;;;;;;5027999;28;20036;-75
2022/07/16 01:55:26;;;;;;;5.45;4.53;;;;;;;;;;5026413;28;20405;-74
2022/07/16 01:57:52;;;;;;;7.40;4.47;;;;;;;;;;5028462;28;20036;-76
2022/07/16 02:00:18;;;;;;;7.03;4.45;;;;;;;;;;5028150;28;20025;-75
2022/07/16 02:02:44;;;;;;;6.07;4.47;;;;;;;;;;5024629;28;20506;-76
2022/07/16 02:05:12;;;;;;;6.78;4.63;;;;;;;;;;5023271;28;20033;-74
2022/07/16 02:07:38;;;;;;;5.43;4.15;;;;;;;;;;5022981;28;20028;-75
2022/07/16 02:10:05;;;;;;;5.88;4.05;;;;;;;;;;5027776;28;20072;-75
2022/07/16 02:12:31;;;;;;;7.93;4.85;;;;;;;;;;5028483;28;20025;-75
2022/07/16 02:14:57;;;;;;;7.22;4.50;;;;;;;;;;5029145;28;20104;-75
2022/07/16 02:17:24;;;;;;;7.03;5.00;;;;;;;;;;5028350;28;20061;-75
2022/07/16 02:19:50;;;;;;;8.70;4.75;;;;;;;;;;5026502;28;20049;-75
2022/07/16 02:22:16;;;;;;;6.70;4.68;;;;;;;;;;5027755;28;20079;-74
2022/07/16 02:24:42;;;;;;;6.90;5.25;;;;;;;;;;5027117;28;20021;-75
2022/07/16 02:27:08;;;;;;;7.97;5.70;;;;;;;;;;5028508;28;20029;-75
2022/07/16 02:29:34;;;;;;;5.38;4.88;;;;;;;;;;5028094;28;20426;-75
2022/07/16 02:32:00;;;;;;;5.13;4.35;;;;;;;;;;5022685;28;20018;-75
2022/07/16 02:34:26;;;;;;;7.00;4.85;;;;;;;;;;5025326;28;20526;-75
2022/07/16 02:36:52;;;;;;;6.85;4.95;;;;;;;;;;5025990;28;20025;-74
2022/07/16 02:39:19;;;;;;;7.53;5.40;;;;;;;;;;5021168;28;20028;-74
2022/07/16 02:41:45;;;;;;;7.95;5.20;;;;;;;;;;5021947;28;20018;-75
2022/07/16 02:44:11;;;;;;;6.60;5.05;;;;;;;;;;5026223;28;20075;-74
2022/07/16 02:46:37;;;;;;;7.45;5.38;;;;;;;;;;5028482;28;20100;-74
2022/07/16 02:49:03;;;;;;;6.45;5.03;;;;;;;;;;5024636;28;20041;-74
2022/07/16 02:51:29;;;;;;;5.38;4.55;;;;;;;;;;5023579;28;20075;-74
2022/07/16 02:53:55;;;;;;;7.53;4.90;;;;;;;;;;5024181;28;20110;-74
2022/07/16 02:56:21;;;;;;;6.95;4.90;;;;;;;;;;5029469;28;20048;-74
2022/07/16 02:58:47;;;;;;;7.93;5.00;;;;;;;;;;5026300;28;20037;-73
2022/07/16 03:01:13;;;;;;;7.50;5.00;;;;;;;;;;5028052;28;20033;-75
2022/07/16 03:03:39;;;;;;;6.20;5.20;;;;;;;;;;5028937;28;20040;-73
2022/07/16 03:06:06;;;;;;;8.52;5.40;;;;;;;;;;5027822;28;20040;-75
2022/07/16 03:08:32;;;;;;;6.07;4.97;;;;;;;;;;5026869;28;20041;-74
2022/07/16 03:10:58;;;;;;;8.52;5.43;;;;;;;;;;5027432;28;20021;-75
2022/07/16 03:13:24;;;;;;;7.53;4.65;;;;;;;;;;5016363;28;20018;-74
2022/07/16 03:15:50;;;;;;;5.47;4.53;;;;;;;;;;5027797;28;20026;-74
2022/07/16 03:18:16;;;;;;;5.88;4.75;;;;;;;;;;5028238;28;20036;-74
2022/07/16 03:20:42;;;;;;;6.15;4.35;;;;;;;;;;5026201;28;20065;-74
2022/07/16 03:23:08;;;;;;;6.05;4.65;;;;;;;;;;5024334;28;20049;-74
2022/07/16 03:25:34;;;;;;;6.57;4.40;;;;;;;;;;5025316;28;20021;-75
2022/07/16 03:28:00;;;;;;;5.95;4.93;;;;;;;;;;5024362;28;22441;-74
2022/07/16 03:30:27;;;;;;;6.30;4.55;;;;;;;;;;5018053;28;20049;-73
2022/07/16 03:32:53;;;;;;;7.50;4.60;;;;;;;;;;5026349;28;20044;-73
2022/07/16 03:35:19;;;;;;;5.60;4.55;;;;;;;;;;5029071;28;20022;-74
2022/07/16 03:40:29;;;;;;;6.28;4.75;;;;;;;;;;5022867;28;20095;-74
2022/07/16 03:42:56;;;;;;;5.57;4.07;;;;;;;;;;5030028;28;20518;-74
2022/07/16 03:45:22;;;;;;;5.32;4.30;;;;;;;;;;5027032;28;20076;-75
2022/07/16 03:47:48;;;;;;;9.18;4.53;;;;;;;;;;5026719;28;20451;-75
2022/07/16 03:50:14;;;;;;;6.07;4.65;;;;;;;;;;5028126;28;20037;-75
2022/07/16 03:52:40;;;;;;;5.45;4.82;;;;;;;;;;5029235;28;20160;-73
2022/07/16 03:55:06;;;;;;;6.22;4.75;;;;;;;;;;5026165;28;20045;-75
2022/07/16 03:57:33;;;;;;;6.43;4.35;;;;;;;;;;5027673;28;20018;-74
2022/07/16 03:59:59;;;;;;;7.07;4.78;;;;;;;;;;5026449;28;20108;-75
2022/07/16 04:02:25;;;;;;;5.75;4.50;;;;;;;;;;5031216;28;20032;-75
2022/07/16 04:04:51;;;;;;;6.22;4.93;;;;;;;;;;5030080;28;20033;-75
2022/07/16 04:07:17;;;;;;;6.78;4.30;;;;;;;;;;5029864;28;20029;-76
2022/07/16 04:09:43;;;;;;;5.57;3.75;;;;;;;;;;5031757;28;20104;-75
2022/07/16 04:12:09;;;;;;;5.63;4.53;;;;;;;;;;5026155;28;20033;-76
2022/07/16 04:14:35;;;;;;;5.72;4.35;;;;;;;;;;5023222;28;20022;-75
2022/07/16 04:17:01;;;;;;;5.90;4.38;;;;;;;;;;5029427;28;20025;-75
2022/07/16 04:19:27;;;;;;;5.93;4.70;;;;;;;;;;5026724;28;20028;-75
2022/07/16 04:21:53;;;;;;;6.22;4.68;;;;;;;;;;5027679;28;20061;-75
2022/07/16 04:24:19;;;;;;;6.68;4.60;;;;;;;;;;5027927;28;20021;-75
2022/07/16 04:26:45;;;;;;;5.68;4.25;;;;;;;;;;5025227;28;20126;-75
2022/07/16 04:29:13;;;;;;;7.90;5.28;;;;;;;;;;5028804;28;20048;-75
2022/07/16 04:31:39;;;;;;;5.82;4.40;;;;;;;;;;5030239;28;20614;-75
2022/07/16 04:34:05;;;;;;;6.35;4.82;;;;;;;;;;5032691;28;20031;-75
2022/07/16 04:36:31;;;;;;;6.60;4.72;;;;;;;;;;5029812;28;20068;-74
2022/07/16 04:38:57;;;;;;;6.78;5.03;;;;;;;;;;5031450;28;20056;-75
2022/07/16 04:41:23;;;;;;;7.00;4.68;;;;;;;;;;5029394;28;20466;-75
2022/07/16 04:43:50;;;;;;;5.57;4.70;;;;;;;;;;5029464;28;20036;-75
2022/07/16 04:46:16;;;;;;;7.93;5.82;;;;;;;;;;5027832;28;20387;-75
2022/07/16 04:48:42;;;;;;;7.13;5.00;;;;;;;;;;5032361;28;20036;-75
2022/07/16 04:51:08;;;;;;;7.32;5.38;;;;;;;;;;5026874;28;20090;-75
2022/07/16 04:53:37;;;;;;;6.38;5.13;;;;;;;;;;5029714;28;20032;-74
2022/07/16 04:56:04;;;;;;;6.88;5.30;;;;;;;;;;5029216;28;20026;-75
2022/07/16 04:58:30;;;;;;;7.63;5.00;;;;;;;;;;5022455;28;20495;-75
2022/07/16 05:00:56;;;;;;;6.47;5.10;;;;;;;;;;5029649;28;20021;-75
2022/07/16 05:03:23;;;;;;;8.40;5.63;;;;;;;;;;5029874;28;20491;-75
2022/07/16 05:05:49;;;;;;;6.72;5.32;;;;;;;;;;5021841;28;20037;-74
2022/07/16 05:08:16;;;;;;;9.57;5.53;;;;;;;;;;5027788;28;20029;-75
2022/07/16 05:10:42;;;;;;;8.23;6.00;;;;;;;;;;5024470;28;20577;-74
2022/07/16 05:13:10;;;;;;;6.93;5.35;;;;;;;;;;5029360;28;20033;-73
2022/07/16 05:15:36;;;;;;;6.15;5.30;;;;;;;;;;5030225;28;20024;-74
2022/07/16 05:18:02;;;;;;;6.88;5.75;;;;;;;;;;5028563;28;20030;-75
2022/07/16 05:20:28;;;;;;;8.50;5.60;;;;;;;;;;5028720;28;20399;-74
2022/07/16 05:22:55;;;;;;;7.05;5.53;;;;;;;;;;5028075;28;20033;-75
2022/07/16 05:25:21;;;;;;;7.68;5.72;;;;;;;;;;5024840;28;20028;-75
2022/07/16 05:27:47;;;;;;;8.02;4.95;;;;;;;;;;5025834;28;20072;-74
2022/07/16 05:30:13;;;;;;;6.45;4.90;;;;;;;;;;5025499;28;20035;-75
2022/07/16 05:32:40;;;;;;;6.93;4.88;;;;;;;;;;5029943;28;20022;-75
2022/07/16 05:35:07;;;;;;;7.13;5.10;;;;;;;;;;5028823;28;20026;-75
2022/07/16 05:37:33;;;;;;;6.35;5.38;;;;;;;;;;5025870;28;20124;-75
2022/07/16 05:39:59;;;;;;;9.55;6.93;;;;;;;;;;5026768;28;20505;-75
2022/07/16 05:42:25;;;;;;;6.85;5.28;;;;;;;;;;5028498;28;20041;-75
2022/07/16 05:44:51;;;;;;;5.45;4.45;;;;;;;;;;5027066;28;20603;-75
2022/07/16 05:47:17;;;;;;;9.02;4.75;;;;;;;;;;5022894;28;20040;-73
2022/07/16 05:49:44;;;;;;;5.30;4.32;;;;;;;;;;5022244;28;20336;-74
2022/07/16 05:52:10;;;;;;;6.20;4.10;;;;;;;;;;5029265;28;20501;-75
2022/07/16 05:54:36;;;;;;;5.57;4.93;;;;;;;;;;5030381;28;20099;-76
2022/07/16 05:57:02;;;;;;;6.68;4.93;;;;;;;;;;5025752;28;20029;-75
2022/07/16 05:59:28;;;;;;;6.68;4.70;;;;;;;;;;5030608;28;20148;-75
2022/07/16 06:01:54;;;;;;;7.00;4.75;;;;;;;;;;5023690;28;20487;-76
2022/07/16 06:04:20;;;;;;;6.68;4.75;;;;;;;;;;5025143;28;20473;-75
2022/07/16 06:06:46;;;;;;;5.40;4.30;;;;;;;;;;5026295;28;20028;-75
2022/07/16 06:09:12;;;;;;;7.28;4.82;;;;;;;;;;5027953;28;20026;-76
2022/07/16 06:11:38;;;;;;;6.75;4.60;;;;;;;;;;5028241;28;20030;-75
2022/07/16 06:14:05;;;;;;;6.00;4.70;;;;;;;;;;5023940;28;20023;-75
2022/07/16 06:16:31;;;;;;;5.78;4.70;;;;;;;;;;5020934;28;20026;-76
2022/07/16 06:18:57;;;;;;;7.00;4.95;;;;;;;;;;5023565;28;20033;-75
2022/07/16 06:21:23;;;;;;;6.35;5.00;;;;;;;;;;5025897;28;20052;-76
2022/07/16 06:23:49;;;;;;;5.15;4.65;;;;;;;;;;5026742;28;20033;-75
2022/07/16 06:26:16;;;;;;;6.47;4.80;;;;;;;;;;5027306;28;20033;-76
2022/07/16 06:28:42;;;;;;;5.97;4.78;;;;;;;;;;5025548;28;20479;-76
2022/07/16 06:31:08;;;;;;;6.38;5.35;;;;;;;;;;5027051;28;20091;-75
2022/07/16 06:33:34;;;;;;;7.10;5.10;;;;;;;;;;5019258;28;20451;-74
2022/07/16 06:36:00;;;;;;;6.97;5.15;;;;;;;;;;5028152;28;20113;-75
2022/07/16 06:38:26;;;;;;;7.97;4.80;;;;;;;;;;5026456;28;20029;-75
2022/07/16 06:40:52;;;;;;;7.00;4.97;;;;;;;;;;5025064;28;20031;-75
2022/07/16 06:43:18;;;;;;;9.23;4.72;;;;;;;;;;5026026;28;20025;-74
2022/07/16 06:45:44;;;;;;;7.40;5.25;;;;;;;;;;5027340;28;20387;-76
2022/07/16 06:48:10;;;;;;;9.23;4.88;;;;;;;;;;5027275;28;20025;-74
2022/07/16 06:50:37;;;;;;;5.47;4.90;;;;;;;;;;5026371;28;20029;-74
2022/07/16 06:53:03;;;;;;;5.10;4.40;;;;;;;;;;5020824;28;20029;-75
2022/07/16 06:55:29;;;;;;;8.18;4.93;;;;;;;;;;5026190;28;20021;-76
2022/07/16 06:57:55;;;;;;;5.72;4.97;;;;;;;;;;5026732;28;20100;-75
2022/07/16 07:00:21;;;;;;;7.70;4.78;;;;;;;;;;5024071;28;20499;-75
2022/07/16 07:02:47;;;;;;;6.38;4.72;;;;;;;;;;5028840;28;20446;-76
2022/07/16 07:05:13;;;;;;;6.68;5.45;;;;;;;;;;5031083;28;20113;-75
2022/07/16 07:07:39;;;;;;;6.45;4.50;;;;;;;;;;5028851;28;20399;-77
2022/07/16 07:10:06;;;;;;;7.15;4.68;;;;;;;;;;5030917;28;20033;-75
2022/07/16 07:12:34;;;;;;;8.13;5.13;;;;;;;;;;5029513;28;20051;-74
2022/07/16 07:15:00;;;;;;;8.00;4.53;;;;;;;;;;5027209;28;20112;-74
2022/07/16 07:17:26;;;;;;;7.70;5.00;;;;;;;;;;5022679;28;20265;-75
2022/07/16 07:19:52;;;;;;;6.25;4.70;;;;;;;;;;5031772;28;20025;-75
2022/07/16 07:22:18;;;;;;;5.40;4.53;;;;;;;;;;5029668;28;20562;-74
2022/07/16 07:24:44;;;;;;;6.20;4.95;;;;;;;;;;5027367;28;20087;-74
2022/07/16 07:27:10;;;;;;;4.97;4.43;;;;;;;;;;5033405;28;20036;-75
2022/07/16 07:29:37;;;;;;;6.55;4.82;;;;;;;;;;5025848;28;20503;-75
2022/07/16 07:32:04;;;;;;;5.50;4.10;;;;;;;;;;5031051;28;20028;-75
2022/07/16 07:34:30;;;;;;;7.57;4.50;;;;;;;;;;5026112;28;20075;-75
2022/07/16 07:36:56;;;;;;;6.25;4.25;;;;;;;;;;5028549;28;20032;-74
2022/07/16 07:39:22;;;;;;;5.40;4.20;;;;;;;;;;5021955;28;20021;-75
2022/07/16 07:41:48;;;;;;;4.32;3.78;;;;;;;;;;5027333;28;20438;-76
2022/07/16 07:44:14;;;;;;;5.07;4.57;;;;;;;;;;5025660;28;20048;-76
2022/07/16 07:46:40;;;;;;;5.85;4.47;;;;;;;;;;5028388;28;20033;-75
2022/07/16 07:49:08;;;;;;;5.72;4.40;;;;;;;;;;5029221;28;20033;-75
2022/07/16 07:51:34;;;;;;;4.57;3.80;;;;;;;;;;5024862;28;20087;-75
2022/07/16 07:54:00;;;;;;;6.88;4.20;;;;;;;;;;5028184;28;20072;-75
2022/07/16 07:56:26;;;;;;;5.10;4.57;;;;;;;;;;5028312;28;20033;-75
2022/07/16 07:58:52;;;;;;;5.35;4.55;;;;;;;;;;5030634;28;20087;-75
2022/07/16 08:01:18;;;;;;;5.25;4.22;;;;;;;;;;5028563;28;20022;-75
2022/07/16 08:03:45;;;;;;;5.63;3.70;;;;;;;;;;5030282;28;21024;-76
2022/07/16 08:06:11;;;;;;;5.78;3.80;;;;;;;;;;5032400;28;20030;-75
2022/07/16 08:08:37;;;;;;;5.50;3.88;;;;;;;;;;5030177;28;20030;-75
2022/07/16 08:11:03;;;;;;;7.78;3.83;;;;;;;;;;5020208;28;20031;-75
2022/07/16 08:13:29;;;;;;;5.75;3.80;;;;;;;;;;5028161;28;20433;-76
2022/07/16 08:15:55;;;;;;;5.25;4.03;;;;;;;;;;5028320;28;20037;-75
2022/07/16 08:18:21;;;;;;;6.25;4.20;;;;;;;;;;5029165;28;20025;-76
2022/07/16 08:20:47;;;;;;;5.45;4.28;;;;;;;;;;5028037;28;20034;-75
2022/07/16 08:25:44;;;;;;;5.75;3.60;;;;;;;;;;5026973;28;20055;-74
2022/07/16 08:25:59;;;;;;;5.03;3.45;;;;;;;;;;5027469;28;20095;-75
2022/07/16 08:28:25;;;;;;;4.57;4.05;;;;;;;;;;5029922;28;20044;-75
2022/07/16 08:30:51;;;;;;;5.15;4.10;;;;;;;;;;5027907;28;20041;-75
2022/07/16 08:33:18;;;;;;;5.30;4.05;;;;;;;;;;5029579;28;20033;-75
2022/07/16 08:35:44;;;;;;;5.75;3.88;;;;;;;;;;5029713;28;20022;-74
2022/07/16 08:38:10;;;;;;;4.10;3.55;;;;;;;;;;5029722;28;20056;-74
2022/07/16 08:40:38;;;;;;;4.40;3.80;;;;;;;;;;5028303;28;20044;-75
2022/07/16 08:43:04;;;;;;;4.53;3.90;;;;;;;;;;5027735;28;20112;-75
2022/07/16 08:45:30;;;;;;;6.20;3.70;;;;;;;;;;5028408;28;20151;-77
2022/07/16 08:47:57;;;;;;;5.68;3.75;;;;;;;;;;5028401;28;20023;-75
2022/07/16 08:50:23;;;;;;;4.47;3.53;;;;;;;;;;5029260;28;20033;-75
2022/07/16 08:52:51;;;;;;;5.18;3.40;;;;;;;;;;5028578;28;20068;-74
2022/07/16 08:55:17;;;;;;;6.07;3.65;;;;;;;;;;5029558;28;20026;-75
2022/07/16 08:57:45;;;;;;;4.07;3.58;;;;;;;;;;5029053;28;20037;-75
2022/07/16 09:00:12;;;;;;;5.05;3.60;;;;;;;;;;5021581;28;20411;-76
2022/07/16 09:02:38;;;;;;;4.40;3.58;;;;;;;;;;5026986;28;20395;-77
2022/07/16 09:05:04;;;;;;;6.03;4.00;;;;;;;;;;5022573;28;20025;-76
2022/07/16 09:07:30;;;;;;;6.53;3.67;;;;;;;;;;5025701;28;20037;-76
2022/07/16 09:09:57;;;;;;;4.30;3.40;;;;;;;;;;5028413;28;20197;-74
2022/07/16 09:12:34;;;;;;;4.90;4.15;;;;;;;;;;5027756;28;20025;-75
2022/07/16 09:15:00;;;;;;;5.80;3.75;;;;;;;;;;5025276;28;20043;-76
2022/07/16 09:17:26;;;;;;;4.97;3.65;;;;;;;;;;5027422;28;20452;-77
2022/07/16 09:19:52;;;;;;;5.47;3.80;;;;;;;;;;5025583;28;20022;-76
2022/07/16 09:22:18;;;;;;;6.60;4.32;;;;;;;;;;5027759;28;20041;-76
2022/07/16 09:24:46;;;;;;;4.30;3.50;;;;;;;;;;5027965;28;20079;-76
2022/07/16 09:27:13;;;;;;;5.13;3.95;;;;;;;;;;5027395;28;20467;-75
2022/07/16 09:29:49;;;;;;;5.97;3.85;;;;;;;;;;5027198;28;20456;-76
2022/07/16 09:32:27;;;;;;;8.15;4.00;;;;;;;;;;5027608;28;20071;-76
2022/07/16 09:35:01;;;;;;;4.68;3.25;;;;;;;;;;5028548;28;20076;-77
2022/07/16 09:37:27;;;;;;;6.70;3.75;;;;;;;;;;5023652;28;20026;-76
2022/07/16 09:39:53;;;;;;;6.20;3.70;;;;;;;;;;5026951;28;20479;-75
2022/07/16 09:42:19;;;;;;;5.18;3.85;;;;;;;;;;5029678;28;20463;-76
2022/07/16 09:44:45;;;;;;;5.18;4.07;;;;;;;;;;5024847;28;20068;-76
2022/07/16 09:47:14;;;;;;;4.68;3.40;;;;;;;;;;5026276;28;20383;-75
2022/07/16 09:49:41;;;;;;;4.43;3.55;;;;;;;;;;5027219;28;20018;-76
2022/07/16 09:52:09;;;;;;;5.25;3.80;;;;;;;;;;5025379;28;20034;-75
2022/07/16 09:54:36;;;;;;;5.40;3.55;;;;;;;;;;5025492;28;20411;-76
2022/07/16 09:57:16;;;;;;;3.95;3.42;;;;;;;;;;5029850;28;20108;-76
2022/07/16 09:59:43;;;;;;;6.45;3.63;;;;;;;;;;5027812;28;20371;-77
2022/07/16 10:02:09;;;;;;;7.05;3.80;;;;;;;;;;5025006;28;20021;-75
2022/07/16 10:04:35;;;;;;;7.25;3.20;;;;;;;;;;5026615;28;20475;-75
2022/07/16 10:07:01;;;;;;;18.83;5.15;;;;;;;;;;5027708;28;20083;-75
2022/07/16 10:09:28;;;;;;;6.22;3.78;;;;;;;;;;5028088;28;20029;-75
2022/07/16 10:11:55;;;;;;;4.10;3.38;;;;;;;;;;5030422;28;20021;-75
2022/07/16 10:14:25;;;;;;;10.38;3.70;;;;;;;;;;5027644;28;20557;-76
2022/07/16 10:16:51;;;;;;;5.68;3.60;;;;;;;;;;5023772;28;20017;-77
2022/07/16 10:19:17;;;;;;;6.20;3.63;;;;;;;;;;5025469;28;20029;-76
2022/07/16 10:22:03;;;;;;;4.22;3.33;;;;;;;;;;5019760;28;20032;-76
2022/07/16 10:24:43;;;;;;;3.80;3.20;;;;;;;;;;5023313;28;20031;-76
2022/07/16 10:27:20;;;;;;;4.93;3.88;;;;;;;;;;5023507;28;20026;-75
2022/07/16 10:29:46;;;;;;;4.13;3.53;;;;;;;;;;5024757;28;20045;-76
2022/07/16 10:32:27;;;;;;;4.15;3.33;;;;;;;;;;5020849;28;20041;-76
2022/07/16 10:34:55;;;;;;;4.35;3.60;;;;;;;;;;5024390;28;20029;-75
2022/07/16 10:37:33;;;;;;;5.05;4.00;;;;;;;;;;5025355;28;20029;-75
2022/07/16 10:40:06;;;;;;;5.70;3.63;;;;;;;;;;5025351;28;20669;-76
2022/07/16 10:42:33;;;;;;;4.55;3.17;;;;;;;;;;5026722;28;20388;-75
2022/07/16 10:44:59;;;;;;;4.72;3.58;;;;;;;;;;5023853;28;20104;-75
2022/07/16 10:47:42;;;;;;;5.05;3.38;;;;;;;;;;5019123;28;20026;-74
2022/07/16 10:50:15;;;;;;;4.72;3.78;;;;;;;;;;5021323;28;20037;-76
2022/07/16 10:52:43;;;;;;;4.50;3.90;;;;;;;;;;5025232;28;20034;-76
2022/07/16 10:55:09;;;;;;;5.40;3.55;;;;;;;;;;5025956;28;20053;-76
2022/07/16 10:57:36;;;;;;;4.88;3.42;;;;;;;;;;5022701;28;20421;-76
2022/07/16 11:00:04;;;;;;;4.82;3.33;;;;;;;;;;5030242;28;20037;-76
2022/07/16 11:02:36;;;;;;;4.45;3.40;;;;;;;;;;5030132;28;20014;-76
2022/07/16 11:05:03;;;;;;;5.80;3.40;;;;;;;;;;5028102;28;20108;-75
2022/07/16 11:07:32;;;;;;;4.90;3.20;;;;;;;;;;5031048;28;20071;-75
2022/07/16 11:09:59;;;;;;;5.00;3.95;;;;;;;;;;5028079;28;20025;-76
2022/07/16 11:12:26;;;;;;;4.38;3.45;;;;;;;;;;5025241;28;22069;-76
2022/07/16 11:14:55;;;;;;;4.45;3.20;;;;;;;;;;5032116;28;20026;-76
2022/07/16 11:17:22;;;;;;;4.28;3.67;;;;;;;;;;5032149;28;20021;-77
2022/07/16 11:19:49;;;;;;;6.18;3.50;;;;;;;;;;5026664;28;20388;-76
2022/07/16 11:22:20;;;;;;;4.18;2.97;;;;;;;;;;5029500;28;20491;-76
2022/07/16 11:24:51;;;;;;;4.75;3.55;;;;;;;;;;5026365;28;20056;-76
2022/07/16 11:27:24;;;;;;;5.70;3.72;;;;;;;;;;5023804;28;20140;-75
2022/07/16 11:29:55;;;;;;;4.90;3.33;;;;;;;;;;5026056;28;20419;-74
2022/07/16 11:32:21;;;;;;;5.85;3.78;;;;;;;;;;5029753;28;20025;-76
2022/07/16 11:34:48;;;;;;;4.43;3.63;;;;;;;;;;5027975;28;20495;-76
2022/07/16 11:37:15;;;;;;;5.00;3.40;;;;;;;;;;5026554;28;20029;-76
2022/07/16 11:39:41;;;;;;;4.03;3.60;;;;;;;;;;5026445;28;20040;-76
2022/07/16 11:42:07;;;;;;;3.40;3.05;;;;;;;;;;5022186;28;20034;-75
2022/07/16 11:44:34;;;;;;;12.15;4.50;;;;;;;;;;5022375;28;20056;-75
2022/07/16 11:47:04;;;;;;;4.43;3.58;;;;;;;;;;5023590;28;20020;-76
2022/07/16 11:49:31;;;;;;;5.22;4.25;;;;;;;;;;5027064;28;20079;-75
2022/07/16 11:51:59;;;;;;;3.92;3.28;;;;;;;;;;5027364;28;20021;-77
2022/07/16 11:54:26;;;;;;;4.47;3.67;;;;;;;;;;5026586;28;20036;-77
2022/07/16 11:56:53;;;;;;;5.30;3.42;;;;;;;;;;5029317;28;20053;-76
2022/07/16 11:59:32;;;;;;;4.03;3.35;;;;;;;;;;5024944;28;20029;-76
2022/07/16 12:01:58;;;;;;;5.93;3.70;;;;;;;;;;5026360;28;20029;-76
2022/07/16 12:04:54;;;;;;;5.72;4.15;;;;;;;;;;5028198;28;20030;-75
2022/07/16 12:07:26;;;;;;;4.30;3.75;;;;;;;;;;5020393;28;20037;-75
2022/07/16 12:09:53;;;;;;;5.65;3.80;;;;;;;;;;5019507;28;20388;-76
2022/07/16 12:12:23;;;;;;;4.63;3.67;;;;;;;;;;5018337;28;20033;-76
2022/07/16 12:14:59;;;;;;;5.72;3.60;;;;;;;;;;5021035;28;20535;-75
2022/07/16 12:17:28;;;;;;;3.90;3.22;;;;;;;;;;5023898;28;20625;-76
2022/07/16 12:20:12;;;;;;;4.50;3.50;;;;;;;;;;5018863;28;20029;-78
2022/07/16 12:22:45;;;;;;;4.50;3.80;;;;;;;;;;5020698;28;20143;-75
2022/07/16 12:25:23;;;;;;;4.18;3.67;;;;;;;;;;5022546;28;20436;-77
2022/07/16 12:27:53;;;;;;;6.05;4.35;;;;;;;;;;5021235;28;20048;-77
2022/07/16 12:30:29;;;;;;;6.13;3.70;;;;;;;;;;5017053;28;20052;-76
2022/07/16 12:32:55;;;;;;;4.43;4.03;;;;;;;;;;5023304;28;20025;-76
2022/07/16 12:35:41;;;;;;;4.97;3.78;;;;;;;;;;5021450;28;20080;-76
2022/07/16 12:38:08;;;;;;;4.45;3.30;;;;;;;;;;5021873;28;20045;-77
2022/07/16 12:40:35;;;;;;;3.83;3.38;;;;;;;;;;5020946;28;20044;-77
2022/07/16 12:43:01;;;;;;;4.97;3.90;;;;;;;;;;5018673;28;20030;-76
2022/07/16 12:45:28;;;;;;;5.78;3.85;;;;;;;;;;5018053;28;20086;-76
2022/07/16 12:47:54;;;;;;;5.25;4.22;;;;;;;;;;5020138;28;20139;-77
2022/07/16 12:50:21;;;;;;;4.53;3.70;;;;;;;;;;5020542;28;20030;-76
2022/07/16 12:52:47;;;;;;;3.95;3.42;;;;;;;;;;5019911;28;20125;-77
2022/07/16 13:00:43;;;;;;;4.35;3.58;;;;;;;;;;5020932;28;20056;-77
2022/07/16 13:03:09;;;;;;;4.50;3.60;;;;;;;;;;5021808;28;20415;-76
2022/07/16 13:05:35;;;;;;;5.05;3.85;;;;;;;;;;5020356;28;20025;-75
2022/07/16 13:08:01;;;;;;;5.20;3.20;;;;;;;;;;5021823;28;20037;-76
2022/07/16 13:10:27;;;;;;;5.63;4.28;;;;;;;;;;5018672;28;20118;-76
2022/07/16 13:12:53;;;;;;;5.45;4.10;;;;;;;;;;5021411;28;20391;-76
2022/07/16 13:15:20;;;;;;;4.50;3.92;;;;;;;;;;5020102;28;20021;-77
2022/07/16 13:17:46;;;;;;;5.55;4.38;;;;;;;;;;5017604;28;20478;-76
2022/07/16 13:20:13;;;;;;;4.03;3.60;;;;;;;;;;5017707;28;20026;-75
2022/07/16 13:22:39;;;;;;;4.70;3.85;;;;;;;;;;5018371;28;20028;-76
2022/07/16 13:25:06;;;;;;;8.60;4.60;;;;;;;;;;5020021;28;20025;-75
2022/07/16 13:27:32;;;;;;;6.43;4.80;;;;;;;;;;5016573;28;20502;-76
2022/07/16 13:29:58;;;;;;;6.93;5.38;;;;;;;;;;5017502;28;20026;-76
2022/07/16 13:32:24;;;;;;;4.80;4.00;;;;;;;;;;5021256;28;20057;-76
2022/07/16 13:34:50;;;;;;;5.32;4.28;;;;;;;;;;5021927;28;20085;-76
2022/07/16 13:37:16;;;;;;;5.75;3.67;;;;;;;;;;5020057;28;20534;-76
2022/07/16 13:39:42;;;;;;;4.20;3.80;;;;;;;;;;5016355;28;20101;-77
2022/07/16 13:42:09;;;;;;;4.10;3.53;;;;;;;;;;5018428;28;20064;-75
2022/07/16 13:44:35;;;;;;;4.43;3.50;;;;;;;;;;5018452;28;20031;-76
2022/07/16 13:47:01;;;;;;;5.60;3.75;;;;;;;;;;5021069;28;20408;-76
2022/07/16 13:49:27;;;;;;;4.50;3.92;;;;;;;;;;5018962;28;20061;-76
2022/07/16 13:51:54;;;;;;;4.22;3.83;;;;;;;;;;5021989;28;20044;-76
2022/07/16 13:54:20;;;;;;;4.78;3.80;;;;;;;;;;5018243;28;20118;-76
2022/07/16 13:56:46;;;;;;;4.63;4.13;;;;;;;;;;5020971;28;20029;-76
2022/07/16 13:59:12;;;;;;;4.82;3.90;;;;;;;;;;5018953;28;20394;-76
2022/07/16 14:01:39;;;;;;;4.30;3.47;;;;;;;;;;5020546;28;20029;-76
2022/07/16 14:04:09;;;;;;;3.85;3.45;;;;;;;;;;5021768;28;20499;-76
2022/07/16 14:06:36;;;;;;;4.28;3.72;;;;;;;;;;5019712;28;20029;-76
2022/07/16 14:09:02;;;;;;;4.18;3.78;;;;;;;;;;5023114;28;20087;-76
2022/07/16 14:11:28;;;;;;;4.45;3.60;;;;;;;;;;5020787;28;20437;-76
2022/07/16 14:13:54;;;;;;;5.20;4.13;;;;;;;;;;5017579;28;20032;-76
2022/07/16 14:16:21;;;;;;;5.13;4.32;;;;;;;;;;5021181;28;20053;-76
2022/07/16 14:18:47;;;;;;;4.55;3.65;;;;;;;;;;5022256;28;20029;-76
2022/07/16 14:21:13;;;;;;;4.13;3.80;;;;;;;;;;5014587;28;20033;-76
2022/07/16 14:23:40;;;;;;;5.57;3.90;;;;;;;;;;5019443;28;20017;-75
2022/07/16 14:26:07;;;;;;;4.03;3.63;;;;;;;;;;5017342;28;20048;-76
2022/07/16 14:28:33;;;;;;;5.78;4.07;;;;;;;;;;5019063;28;20128;-75
2022/07/16 14:30:59;;;;;;;6.43;4.00;;;;;;;;;;5020451;28;20159;-76
2022/07/16 14:33:25;;;;;;;5.65;4.25;;;;;;;;;;5020436;28;20299;-76
2022/07/16 14:35:51;;;;;;;4.68;4.13;;;;;;;;;;5021102;28;20025;-76
2022/07/16 14:38:17;;;;;;;6.18;4.68;;;;;;;;;;5020559;28;20029;-76
2022/07/16 14:40:43;;;;;;;4.30;3.90;;;;;;;;;;5023553;28;20103;-77
2022/07/16 14:43:09;;;;;;;5.25;3.67;;;;;;;;;;5020201;28;20534;-77
2022/07/16 14:45:36;;;;;;;4.78;4.28;;;;;;;;;;5025656;28;20499;-77
2022/07/16 14:48:02;;;;;;;5.75;4.05;;;;;;;;;;5023664;28;20499;-76
2022/07/16 14:50:28;;;;;;;4.47;3.92;;;;;;;;;;5020182;28;20068;-76
2022/07/16 14:52:54;;;;;;;5.50;3.63;;;;;;;;;;5016324;28;20041;-76